Time;durP1;ratioP1;P1;durP2;ratioP2;P2;SDS_P1;SDS_P2;PMS_P1;PMS_P2;Temp;Humidity;BMP_temperature;BMP_pressure;BME280_temperature;BME280_humidity;BME280_pressure;Samples;Min_cycle;Max_cycle;Signal;HPM_P1;HPM_P2
2023/12/25 08:11:45;;;;;;;10.68;1.75;;;;;;;10.68;100.00;100413.22;5215883;24;20077;-77
2023/12/25 08:14:10;;;;;;;10.50;2.05;;;;;;;10.63;100.00;100428.41;4813984;29;20492;-76
2023/12/25 08:16:36;;;;;;;12.05;2.08;;;;;;;10.63;100.00;100425.59;4822499;29;20026;-76
2023/12/25 08:19:01;;;;;;;5.65;1.33;;;;;;;10.65;100.00;100409.22;4816256;29;20026;-77
2023/12/25 08:21:26;;;;;;;4.82;1.60;;;;;;;10.60;100.00;100405.97;4817542;29;20526;-76
2023/12/25 08:23:52;;;;;;;6.22;1.45;;;;;;;10.64;100.00;100430.00;4821289;29;20030;-76
2023/12/25 08:26:18;;;;;;;5.72;1.55;;;;;;;10.54;100.00;100419.53;4823571;29;20141;-76
2023/12/25 08:28:59;;;;;;;7.43;1.90;;;;;;;10.57;100.00;100422.34;4816252;29;20503;-76
2023/12/25 08:31:25;;;;;;;13.45;2.03;;;;;;;10.56;100.00;100428.34;4817607;29;20121;-76
2023/12/25 08:33:50;;;;;;;7.57;1.90;;;;;;;10.58;100.00;100431.53;4816467;29;20121;-76
2023/12/25 08:36:15;;;;;;;5.25;1.58;;;;;;;10.58;100.00;100420.34;4813884;29;20094;-76
2023/12/25 08:38:41;;;;;;;7.20;1.52;;;;;;;10.64;100.00;100429.19;4816180;29;20090;-76
2023/12/25 08:41:06;;;;;;;10.25;1.90;;;;;;;10.52;100.00;100438.69;4818076;29;20578;-76
2023/12/25 08:43:31;;;;;;;9.77;2.15;;;;;;;10.58;100.00;100442.75;4815248;29;20027;-76
2023/12/25 08:45:57;;;;;;;4.65;1.63;;;;;;;10.53;100.00;100435.53;4817152;29;20081;-76
2023/12/25 08:48:23;;;;;;;10.45;1.52;;;;;;;10.50;100.00;100433.50;4817509;29;20101;-76
2023/12/25 08:50:49;;;;;;;7.03;1.40;;;;;;;10.48;100.00;100432.31;4817805;29;20392;-76
2023/12/25 08:53:14;;;;;;;7.47;1.92;;;;;;;10.41;100.00;100443.41;4816646;29;20038;-76
2023/12/25 08:55:39;;;;;;;12.43;1.60;;;;;;;10.46;100.00;100452.25;4816927;29;20033;-75
2023/12/25 08:58:05;;;;;;;6.43;1.48;;;;;;;10.56;100.00;100450.72;4817392;29;20039;-76
2023/12/25 09:00:30;;;;;;;13.15;2.17;;;;;;;10.52;100.00;100449.88;4817112;29;20038;-76
2023/12/25 09:02:55;;;;;;;6.78;1.77;;;;;;;10.48;100.00;100454.69;4817631;29;20038;-72
2023/12/25 09:05:21;;;;;;;5.38;1.38;;;;;;;10.52;100.00;100461.09;4818625;29;20091;-76
2023/12/25 09:07:46;;;;;;;7.53;2.80;;;;;;;10.56;100.00;100459.13;4811315;29;20031;-76
2023/12/25 09:10:11;;;;;;;3.20;1.50;;;;;;;10.52;100.00;100466.69;4817973;29;20384;-76
2023/12/25 09:12:38;;;;;;;6.18;1.20;;;;;;;10.54;100.00;100469.91;4815135;29;20448;-76
2023/12/25 09:15:04;;;;;;;5.45;2.30;;;;;;;10.56;100.00;100464.72;4819373;29;20127;-76
2023/12/25 09:17:30;;;;;;;14.20;2.58;;;;;;;10.52;100.00;100472.28;4818729;29;20027;-76
2023/12/25 09:19:56;;;;;;;9.93;1.65;;;;;;;10.47;100.00;100469.84;4810722;29;20129;-76
2023/12/25 09:22:23;;;;;;;8.13;1.70;;;;;;;10.47;100.00;100473.44;4821742;29;20509;-76
2023/12/25 09:24:50;;;;;;;9.13;2.35;;;;;;;10.50;100.00;100463.50;4815117;29;20038;-76
2023/12/25 09:27:16;;;;;;;12.27;2.10;;;;;;;10.54;100.00;100458.69;4816528;29;20696;-76
2023/12/25 09:29:41;;;;;;;6.32;2.13;;;;;;;10.57;100.00;100466.34;4818250;29;20114;-77
2023/12/25 09:32:07;;;;;;;4.57;1.85;;;;;;;10.52;100.00;100472.28;4820113;29;20030;-77
2023/12/25 09:34:32;;;;;;;5.57;2.58;;;;;;;10.57;100.00;100477.53;4820931;29;20392;-76
2023/12/25 09:36:58;;;;;;;8.98;1.85;;;;;;;10.51;100.00;100476.28;4821004;29;20031;-76
2023/12/25 09:39:24;;;;;;;10.45;1.67;;;;;;;10.54;100.00;100469.91;4820169;29;20041;-76
2023/12/25 09:41:49;;;;;;;9.65;1.63;;;;;;;10.58;100.00;100482.75;4819516;29;20034;-76
2023/12/25 09:44:14;;;;;;;4.63;1.83;;;;;;;10.61;100.00;100480.38;4819972;29;20066;-77
2023/12/25 09:46:40;;;;;;;7.07;1.90;;;;;;;10.58;100.00;100479.94;4822090;29;20042;-76
2023/12/25 09:49:06;;;;;;;8.00;1.35;;;;;;;10.66;100.00;100482.78;4817441;29;20038;-77
2023/12/25 09:51:33;;;;;;;5.72;2.13;;;;;;;10.64;100.00;100491.56;4814472;29;20041;-76
2023/12/25 09:53:59;;;;;;;9.75;1.15;;;;;;;10.62;100.00;100502.34;4815871;29;20034;-77
2023/12/25 09:56:26;;;;;;;3.17;1.23;;;;;;;10.65;100.00;100512.00;4820457;29;20573;-75
2023/12/25 09:58:53;;;;;;;5.65;1.48;;;;;;;10.68;100.00;100503.59;4819065;29;20069;-77
2023/12/25 10:01:20;;;;;;;4.90;1.42;;;;;;;10.69;100.00;100510.81;4814725;29;20492;-75
2023/12/25 10:03:46;;;;;;;7.38;1.42;;;;;;;10.70;100.00;100508.81;4821582;29;20026;-76
2023/12/25 10:06:12;;;;;;;8.15;2.50;;;;;;;10.74;100.00;100512.44;4819920;29;20450;-76
2023/12/25 10:08:39;;;;;;;10.15;1.58;;;;;;;10.81;100.00;100517.31;4814900;29;20117;-75
2023/12/25 10:11:04;;;;;;;3.20;1.25;;;;;;;10.75;100.00;100520.47;4815822;29;20050;-76
2023/12/25 10:13:31;;;;;;;5.80;1.60;;;;;;;10.73;100.00;100527.63;4821409;29;20508;-76
2023/12/25 10:15:56;;;;;;;11.80;1.95;;;;;;;10.74;100.00;100526.44;4816883;29;20030;-75
2023/12/25 10:18:22;;;;;;;3.20;1.58;;;;;;;10.82;100.00;100522.50;4818195;29;20082;-77
2023/12/25 10:20:58;;;;;;;8.90;2.17;;;;;;;10.85;100.00;100501.34;4817094;29;20133;-77
2023/12/25 10:23:33;;;;;;;4.72;1.60;;;;;;;10.80;100.00;100498.91;4818117;29;20511;-76
2023/12/25 10:26:00;;;;;;;9.50;2.15;;;;;;;10.86;100.00;100500.94;4817274;29;20042;-76
2023/12/25 10:28:28;;;;;;;5.63;1.98;;;;;;;10.93;100.00;100501.00;4819326;29;20492;-78
2023/12/25 10:31:03;;;;;;;9.50;2.40;;;;;;;10.89;100.00;100505.75;4819830;29;20045;-76
2023/12/25 10:33:29;;;;;;;5.32;2.03;;;;;;;10.86;100.00;100511.34;4817225;29;20049;-76
2023/12/25 10:36:03;;;;;;;9.82;2.63;;;;;;;10.86;100.00;100516.94;4807811;29;20033;-76
2023/12/25 10:38:31;;;;;;;4.80;1.60;;;;;;;10.81;100.00;100506.09;4768656;29;20574;-76
2023/12/25 10:40:56;;;;;;;10.05;1.80;;;;;;;10.83;100.00;100509.31;4774727;29;20079;-76
2023/12/25 10:43:24;;;;;;;7.28;1.40;;;;;;;10.84;100.00;100506.13;4768058;29;20529;-76
2023/12/25 10:45:53;;;;;;;6.38;1.15;;;;;;;10.88;100.00;100514.53;4771999;29;20027;-76
2023/12/25 10:48:21;;;;;;;5.20;1.52;;;;;;;10.85;100.00;100504.94;4774137;29;20105;-76
2023/12/25 10:50:46;;;;;;;7.57;1.38;;;;;;;10.92;100.00;100498.56;4777553;29;20039;-76
2023/12/25 10:53:16;;;;;;;6.88;1.77;;;;;;;10.93;100.00;100505.78;4773735;29;20063;-76
2023/12/25 10:55:43;;;;;;;9.95;2.10;;;;;;;10.88;100.00;100514.53;4774387;29;20027;-75
2023/12/25 10:58:12;;;;;;;8.95;1.77;;;;;;;10.94;100.00;100510.19;4772433;29;20054;-76
2023/12/25 11:00:40;;;;;;;7.07;2.38;;;;;;;10.90;100.00;100495.34;4773469;29;20099;-76
2023/12/25 11:03:06;;;;;;;8.25;2.33;;;;;;;10.92;100.00;100481.75;4777285;29;20050;-76
2023/12/25 11:05:32;;;;;;;9.40;3.03;;;;;;;11.01;100.00;100485.03;4776333;30;20474;-75
2023/12/25 11:07:58;;;;;;;6.13;1.60;;;;;;;10.99;100.00;100493.03;4777421;30;20043;-76
2023/12/25 11:10:27;;;;;;;7.63;2.33;;;;;;;11.01;100.00;100487.84;4779393;29;20041;-76
2023/12/25 11:12:54;;;;;;;11.05;2.03;;;;;;;10.99;100.00;100491.03;4765863;29;20055;-75
2023/12/25 11:15:19;;;;;;;5.63;1.58;;;;;;;11.01;100.00;100490.66;4770380;29;20216;-75
2023/12/25 11:17:45;;;;;;;8.90;1.55;;;;;;;11.05;100.00;100493.47;4779616;29;20106;-75
2023/12/25 11:20:11;;;;;;;6.57;1.70;;;;;;;11.09;100.00;100489.50;4777968;29;20043;-75
2023/12/25 11:22:40;;;;;;;7.82;1.77;;;;;;;11.13;100.00;100484.72;4773406;29;20177;-75
2023/12/25 11:25:10;;;;;;;7.90;1.65;;;;;;;11.13;100.00;100490.31;4770476;29;20112;-75
2023/12/25 11:27:36;;;;;;;6.30;2.38;;;;;;;11.13;100.00;100487.53;4777848;29;20074;-75
2023/12/25 11:30:03;;;;;;;10.27;2.50;;;;;;;11.23;100.00;100487.97;4770263;29;20461;-75
2023/12/25 11:32:30;;;;;;;5.85;1.65;;;;;;;11.23;100.00;100487.97;4778020;29;20046;-75
2023/12/25 11:34:57;;;;;;;6.38;1.80;;;;;;;11.28;100.00;100476.38;4777249;30;20058;-75
2023/12/25 11:37:25;;;;;;;8.02;3.00;;;;;;;11.33;100.00;100484.41;4779024;30;20470;-75
2023/12/25 11:40:01;;;;;;;5.47;1.65;;;;;;;11.32;100.00;100497.63;4778245;29;20066;-74
2023/12/25 11:42:26;;;;;;;3.13;1.60;;;;;;;11.30;100.00;100483.22;4780143;29;20042;-75
2023/12/25 11:45:00;;;;;;;4.30;1.58;;;;;;;11.38;100.00;100489.63;4774483;30;20048;-75
2023/12/25 11:47:42;;;;;;;6.05;1.65;;;;;;;11.38;100.00;100484.03;4777165;29;20035;-75
2023/12/25 11:50:09;;;;;;;5.85;2.22;;;;;;;11.42;100.00;100479.25;4779063;29;20031;-74
2023/12/25 11:52:46;;;;;;;4.40;1.55;;;;;;;11.45;100.00;100480.44;4777998;29;20100;-75
2023/12/25 11:55:25;;;;;;;5.28;1.88;;;;;;;11.52;100.00;100492.50;4778489;29;20039;-75
2023/12/25 11:57:51;;;;;;;5.15;1.60;;;;;;;11.53;100.00;100479.28;4775617;29;20103;-75
2023/12/25 12:00:18;;;;;;;5.20;2.28;;;;;;;11.55;100.00;100477.72;4779356;29;20035;-75
2023/12/25 12:02:44;;;;;;;4.10;1.30;;;;;;;11.58;100.00;100468.50;4780582;29;20439;-75
2023/12/25 12:05:10;;;;;;;8.05;2.08;;;;;;;11.57;100.00;100477.31;4778183;29;20061;-74
2023/12/25 12:07:35;;;;;;;6.78;1.85;;;;;;;11.64;100.00;100479.31;4772784;30;20070;-75
2023/12/25 12:10:00;;;;;;;6.30;1.75;;;;;;;11.63;100.00;100467.31;4776647;29;20050;-74
2023/12/25 12:12:27;;;;;;;9.70;2.67;;;;;;;11.62;100.00;100460.13;4775990;29;20057;-75
2023/12/25 12:14:53;;;;;;;4.00;2.28;;;;;;;11.64;100.00;100466.13;4774552;30;20497;-75
2023/12/25 12:17:18;;;;;;;3.65;1.73;;;;;;;11.64;100.00;100468.94;4774676;29;20043;-74
2023/12/25 12:19:44;;;;;;;6.15;1.85;;;;;;;11.64;100.00;100462.50;4778521;29;20135;-74
2023/12/25 12:22:09;;;;;;;4.50;1.50;;;;;;;11.65;100.00;100476.13;4778412;30;21991;-75
2023/12/25 12:24:35;;;;;;;5.72;2.08;;;;;;;11.78;100.00;100468.16;4778398;30;20062;-75
2023/12/25 12:27:04;;;;;;;4.03;1.45;;;;;;;11.66;100.00;100477.75;4778671;29;20077;-75
2023/12/25 12:29:30;;;;;;;4.53;1.30;;;;;;;11.71;100.00;100477.38;4780326;30;20067;-75
2023/12/25 12:31:56;;;;;;;5.38;1.30;;;;;;;11.76;100.00;100476.16;4776167;29;20047;-74
2023/12/25 12:34:22;;;;;;;8.52;2.13;;;;;;;11.76;100.00;100477.00;4772987;30;20031;-75
2023/12/25 12:37:00;;;;;;;8.65;1.77;;;;;;;11.70;100.00;100488.97;4778454;29;20036;-75
2023/12/25 12:39:26;;;;;;;5.72;2.22;;;;;;;11.73;100.00;100488.19;4781765;30;20039;-75
2023/12/25 12:41:55;;;;;;;9.45;1.92;;;;;;;11.70;100.00;100491.75;4773363;29;20054;-75
2023/12/25 12:44:22;;;;;;;6.25;1.50;;;;;;;11.67;100.00;100478.56;4778421;30;20122;-75
2023/12/25 12:46:48;;;;;;;4.68;1.73;;;;;;;11.72;100.00;100472.56;4776987;30;20135;-75
2023/12/25 12:49:14;;;;;;;7.68;3.28;;;;;;;11.65;100.00;100483.75;4780754;29;20043;-75
2023/12/25 12:51:39;;;;;;;2.97;1.17;;;;;;;11.68;100.00;100491.34;4779717;30;20031;-75
2023/12/25 12:54:04;;;;;;;11.57;2.10;;;;;;;11.66;100.00;100500.19;4780074;30;20031;-75
2023/12/25 12:56:30;;;;;;;7.28;1.48;;;;;;;11.68;100.00;100497.78;4781961;29;20126;-75
2023/12/25 12:58:56;;;;;;;10.27;2.15;;;;;;;11.56;100.00;100500.94;4779912;29;20047;-75
2023/12/25 13:01:23;;;;;;;8.02;2.05;;;;;;;11.53;100.00;100508.16;4784445;29;20039;-75
2023/12/25 13:03:49;;;;;;;7.53;1.90;;;;;;;11.55;100.00;100505.75;4783887;29;20123;-76
2023/12/25 13:06:17;;;;;;;5.85;1.30;;;;;;;11.51;100.00;100515.31;4781595;29;20042;-75
2023/12/25 13:08:43;;;;;;;7.32;1.23;;;;;;;11.60;100.00;100512.97;4783127;29;20521;-75
2023/12/25 13:11:08;;;;;;;6.70;1.40;;;;;;;11.64;100.00;100513.78;4782609;29;20091;-75
2023/12/25 13:13:33;;;;;;;6.68;1.48;;;;;;;11.59;100.00;100506.56;4780853;29;20031;-75
2023/12/25 13:15:59;;;;;;;4.38;1.30;;;;;;;11.65;100.00;100495.75;4775799;29;20034;-76
2023/12/25 13:18:25;;;;;;;7.57;1.40;;;;;;;11.69;100.00;100498.59;4773899;30;20082;-75
2023/12/25 13:20:50;;;;;;;5.57;1.70;;;;;;;11.80;100.00;100476.97;4771788;29;20050;-76
2023/12/25 13:23:16;;;;;;;4.82;1.42;;;;;;;11.56;100.00;100486.94;4776188;29;20183;-76
2023/12/25 13:25:41;;;;;;;4.70;1.35;;;;;;;11.55;100.00;100474.09;4772801;29;20031;-76
2023/12/25 13:28:06;;;;;;;4.63;1.60;;;;;;;11.54;100.00;100470.50;4780979;29;20032;-76
2023/12/25 13:30:32;;;;;;;5.40;1.77;;;;;;;11.58;100.00;100474.13;4779336;29;20126;-76
2023/12/25 13:32:57;;;;;;;7.38;2.47;;;;;;;11.51;100.00;100471.31;4780583;30;20035;-76
2023/12/25 13:35:23;;;;;;;3.60;1.50;;;;;;;11.45;100.00;100475.66;4776529;29;20039;-76
2023/12/25 13:37:48;;;;;;;4.15;1.70;;;;;;;11.44;100.00;100465.66;4782683;30;20042;-76
2023/12/25 13:40:14;;;;;;;6.93;1.35;;;;;;;11.46;100.00;100477.25;4782296;30;20035;-76
2023/12/25 13:42:40;;;;;;;6.00;1.13;;;;;;;11.37;100.00;100483.25;4784759;29;20023;-76
2023/12/25 13:45:05;;;;;;;4.78;1.40;;;;;;;11.41;100.00;100493.69;4778305;30;21374;-76
2023/12/25 13:47:31;;;;;;;5.22;1.08;;;;;;;11.43;100.00;100492.06;4782396;30;20059;-77
2023/12/25 13:50:02;;;;;;;5.72;1.65;;;;;;;11.45;100.00;100492.50;4782881;29;20066;-77
2023/12/25 13:52:27;;;;;;;8.43;2.42;;;;;;;11.44;100.00;100482.47;4779963;29;20031;-78
2023/12/25 13:54:53;;;;;;;4.28;1.65;;;;;;;11.43;100.00;100475.25;4779746;30;20042;-77
2023/12/25 13:57:18;;;;;;;11.27;1.40;;;;;;;11.43;100.00;100469.66;4782473;29;20133;-77
2023/12/25 13:59:44;;;;;;;5.47;1.30;;;;;;;11.42;100.00;100456.03;4776895;29;20031;-77
2023/12/25 14:02:09;;;;;;;3.33;1.88;;;;;;;11.42;100.00;100450.44;4779660;30;20039;-77
2023/12/25 14:04:36;;;;;;;4.05;1.35;;;;;;;11.43;100.00;100455.66;4776462;30;20431;-77
2023/12/25 14:07:03;;;;;;;4.75;0.95;;;;;;;11.39;100.00;100461.22;4780944;29;20533;-77
2023/12/25 14:09:28;;;;;;;7.65;1.48;;;;;;;11.34;100.00;100467.22;4777028;30;20173;-76
2023/12/25 14:11:54;;;;;;;6.18;1.50;;;;;;;11.45;100.00;100466.44;4784584;29;20130;-76
2023/12/25 14:14:19;;;;;;;6.55;1.63;;;;;;;11.34;100.00;100477.59;4778053;29;20040;-75
2023/12/25 14:16:45;;;;;;;6.47;1.42;;;;;;;11.36;100.00;100481.66;4783196;30;20031;-75
2023/12/25 14:19:10;;;;;;;7.40;2.03;;;;;;;11.34;100.00;100497.22;4780133;30;20035;-75
2023/12/25 14:21:36;;;;;;;4.85;1.20;;;;;;;11.34;100.00;100491.63;4782351;30;20035;-75
2023/12/25 14:24:01;;;;;;;5.65;1.83;;;;;;;11.31;100.00;100493.22;4778832;30;20518;-75
2023/12/25 14:26:26;;;;;;;7.75;1.27;;;;;;;11.29;100.00;100498.41;4780114;30;20126;-75
2023/12/25 14:28:52;;;;;;;6.40;1.50;;;;;;;11.31;100.00;100490.41;4781202;30;20096;-75
2023/12/25 14:31:18;;;;;;;2.15;0.80;;;;;;;11.31;100.00;100495.22;4779114;29;20045;-75
2023/12/25 14:33:44;;;;;;;5.78;1.63;;;;;;;11.27;100.00;100505.59;4777685;30;20126;-75
2023/12/25 14:36:10;;;;;;;3.05;1.35;;;;;;;11.26;100.00;100532.00;4779460;30;20130;-75
2023/12/25 14:38:36;;;;;;;11.38;1.90;;;;;;;11.26;100.00;100532.00;4779261;29;20073;-75
2023/12/25 14:41:02;;;;;;;6.50;1.30;;;;;;;11.23;100.00;100511.19;4781507;30;20043;-75
2023/12/25 14:43:28;;;;;;;14.27;4.40;;;;;;;11.18;100.00;100509.56;4778692;29;20546;-75
2023/12/25 14:45:53;;;;;;;9.27;2.50;;;;;;;11.19;100.00;100511.19;4779161;29;20043;-75
2023/12/25 14:48:18;;;;;;;5.25;1.50;;;;;;;11.18;100.00;100526.34;4779698;29;20064;-75
2023/12/25 14:50:44;;;;;;;3.78;1.48;;;;;;;11.12;100.00;100522.31;4778664;29;20043;-75
2023/12/25 14:53:09;;;;;;;9.45;2.28;;;;;;;11.13;100.00;100512.72;4777457;29;20039;-76
2023/12/25 14:55:35;;;;;;;3.83;1.48;;;;;;;11.16;100.00;100514.75;4780140;30;20035;-75
2023/12/25 14:58:01;;;;;;;7.97;2.28;;;;;;;11.14;100.00;100513.53;4783144;29;20138;-75
2023/12/25 15:00:27;;;;;;;4.97;1.33;;;;;;;11.08;100.00;100510.28;4778906;29;20747;-75
2023/12/25 15:02:53;;;;;;;5.07;1.63;;;;;;;11.10;100.00;100507.91;4779891;30;20039;-75
2023/12/25 15:05:18;;;;;;;7.30;1.48;;;;;;;11.13;100.00;100498.72;4776115;29;20042;-75
2023/12/25 15:07:44;;;;;;;4.57;1.98;;;;;;;11.13;100.00;100498.72;4783588;29;20114;-75
2023/12/25 15:10:10;;;;;;;6.80;2.30;;;;;;;11.07;100.00;100496.66;4781201;29;20402;-75
2023/12/25 15:12:37;;;;;;;11.48;2.05;;;;;;;11.05;100.00;100497.06;4775362;30;20513;-75
2023/12/25 15:15:04;;;;;;;4.03;1.65;;;;;;;11.07;100.00;100494.69;4778003;29;20031;-76
2023/12/25 15:17:30;;;;;;;5.90;1.80;;;;;;;11.06;100.00;100507.06;4775889;29;21072;-75
2023/12/25 15:19:55;;;;;;;6.18;1.35;;;;;;;11.01;100.00;100504.66;4778388;29;20047;-75
2023/12/25 15:22:21;;;;;;;5.95;1.75;;;;;;;11.08;100.00;100509.50;4783656;30;20157;-75
2023/12/25 15:24:46;;;;;;;5.90;1.80;;;;;;;10.97;100.00;100501.81;4782276;30;20088;-75
2023/12/25 15:27:12;;;;;;;6.95;1.40;;;;;;;11.06;100.00;100504.28;4779466;29;20039;-75
2023/12/25 15:29:38;;;;;;;5.45;1.45;;;;;;;10.99;100.00;100476.22;4778744;30;20068;-75
2023/12/25 15:32:04;;;;;;;3.53;1.80;;;;;;;11.01;100.00;100487.06;4779453;29;20497;-77
2023/12/25 15:34:29;;;;;;;5.10;1.55;;;;;;;10.95;100.00;100483.81;4779831;30;20118;-76
2023/12/25 15:36:55;;;;;;;5.85;1.50;;;;;;;11.02;100.00;100489.44;4783558;29;20100;-76
2023/12/25 15:39:23;;;;;;;5.38;1.50;;;;;;;10.99;100.00;100507.03;4779148;29;20477;-76
2023/12/25 15:41:50;;;;;;;6.95;1.20;;;;;;;10.96;100.00;100493.78;4779464;30;20027;-76
2023/12/25 15:44:15;;;;;;;8.13;1.63;;;;;;;10.92;100.00;100501.38;4781107;30;20043;-76
2023/12/25 15:46:40;;;;;;;4.32;1.30;;;;;;;10.94;100.00;100493.38;4781579;30;20034;-76
2023/12/25 15:49:07;;;;;;;5.22;1.27;;;;;;;10.95;100.00;100497.81;4776636;29;20047;-76
2023/12/25 15:51:32;;;;;;;4.15;1.73;;;;;;;10.89;100.00;100497.34;4779830;29;20074;-76
2023/12/25 15:53:57;;;;;;;7.85;1.48;;;;;;;10.88;100.00;100500.53;4778496;29;20094;-76
2023/12/25 15:56:23;;;;;;;5.25;1.50;;;;;;;10.83;100.00;100492.50;4777686;29;20054;-76
2023/12/25 15:58:48;;;;;;;4.43;1.52;;;;;;;10.89;100.00;100494.56;4780981;30;20039;-76
2023/12/25 16:01:14;;;;;;;4.40;1.25;;;;;;;10.86;100.00;100486.16;4779001;29;20035;-76
2023/12/25 16:03:39;;;;;;;6.03;1.60;;;;;;;10.88;100.00;100492.97;4780452;29;20577;-76
2023/12/25 16:06:06;;;;;;;5.82;1.42;;;;;;;10.91;100.00;100491.38;4778788;29;20035;-76
2023/12/25 16:08:31;;;;;;;6.93;1.70;;;;;;;10.87;100.00;100496.16;4783033;29;20027;-76
2023/12/25 16:10:57;;;;;;;4.38;1.75;;;;;;;10.91;100.00;100499.78;4778557;29;20502;-76
2023/12/25 16:13:22;;;;;;;4.88;1.42;;;;;;;10.93;100.00;100505.78;4781941;30;20069;-76
2023/12/25 16:15:48;;;;;;;5.72;1.48;;;;;;;10.88;100.00;100489.34;4779143;29;20486;-76
2023/12/25 16:18:13;;;;;;;4.90;1.80;;;;;;;10.80;100.00;100474.50;4778537;29;20104;-76
2023/12/25 16:20:40;;;;;;;7.90;1.92;;;;;;;10.86;100.00;100480.56;4772834;30;20035;-76
2023/12/25 16:23:06;;;;;;;8.18;3.00;;;;;;;10.80;100.00;100471.72;4782572;30;20035;-76
2023/12/25 16:25:31;;;;;;;8.38;3.60;;;;;;;10.85;100.00;100471.31;4782533;29;20105;-76
2023/12/25 16:27:58;;;;;;;4.80;2.90;;;;;;;10.83;100.00;100464.53;4784609;29;20051;-76
2023/12/25 16:30:23;;;;;;;3.35;2.00;;;;;;;10.69;100.00;100468.00;4782695;29;20497;-76
2023/12/25 16:32:48;;;;;;;5.55;1.83;;;;;;;10.62;100.00;100465.97;4779846;29;20067;-75
2023/12/25 16:35:14;;;;;;;6.57;2.20;;;;;;;10.62;100.00;100465.97;4791854;29;20035;-75
2023/12/25 16:37:39;;;;;;;7.15;1.95;;;;;;;10.71;100.00;100474.03;4777845;29;20070;-75
2023/12/25 16:40:06;;;;;;;5.00;1.42;;;;;;;10.72;100.00;100475.66;4784020;29;20161;-75
2023/12/25 16:42:32;;;;;;;4.78;1.58;;;;;;;10.71;100.00;100469.25;4777193;30;20562;-73
2023/12/25 16:44:57;;;;;;;4.80;1.95;;;;;;;10.73;100.00;100458.47;4783726;29;20122;-75
2023/12/25 16:47:22;;;;;;;11.38;2.17;;;;;;;10.69;100.00;100463.22;4784627;29;20035;-74
2023/12/25 16:49:48;;;;;;;6.43;2.67;;;;;;;10.70;100.00;100462.03;4783324;29;20031;-74
2023/12/25 16:52:13;;;;;;;7.85;3.72;;;;;;;10.70;100.00;100456.44;4781916;30;20063;-73
2023/12/25 16:54:39;;;;;;;6.80;3.75;;;;;;;10.70;100.00;100450.03;4785004;29;20522;-74
2023/12/25 16:57:04;;;;;;;6.88;2.55;;;;;;;10.74;100.00;100446.06;4784943;29;20040;-73
2023/12/25 16:59:29;;;;;;;4.28;1.83;;;;;;;10.73;100.00;100438.88;4780608;29;24956;-73
2023/12/25 17:01:55;;;;;;;3.10;1.90;;;;;;;10.76;100.00;100440.88;4784646;29;20089;-73
2023/12/25 17:04:20;;;;;;;8.82;2.50;;;;;;;10.78;100.00;100444.09;4781505;29;20633;-73
2023/12/25 17:06:46;;;;;;;5.38;2.13;;;;;;;10.82;100.00;100434.94;4783378;29;20040;-73
2023/12/25 17:09:11;;;;;;;6.25;2.40;;;;;;;10.86;100.00;100439.34;4783596;29;20039;-73
2023/12/25 17:11:46;;;;;;;5.75;2.92;;;;;;;10.92;100.00;100440.59;4781329;29;20047;-73
2023/12/25 17:14:11;;;;;;;6.68;2.60;;;;;;;10.88;100.00;100434.16;4786447;29;20035;-73
2023/12/25 17:16:39;;;;;;;8.30;3.05;;;;;;;10.90;100.00;100436.56;4779659;29;20123;-76
2023/12/25 17:19:04;;;;;;;5.20;2.78;;;;;;;10.92;100.00;100435.00;4782746;30;20050;-73
2023/12/25 17:21:30;;;;;;;10.73;3.03;;;;;;;10.88;100.00;100441.75;4779091;29;20410;-74
2023/12/25 17:23:55;;;;;;;5.05;2.72;;;;;;;10.89;100.00;100446.97;4780451;29;20100;-74
2023/12/25 17:26:21;;;;;;;4.43;3.40;;;;;;;10.94;100.00;100437.38;4776202;29;20039;-75
2023/12/25 17:28:46;;;;;;;9.57;3.05;;;;;;;10.89;100.00;100434.97;4781644;29;20110;-75
2023/12/25 17:31:12;;;;;;;4.80;3.10;;;;;;;10.95;100.00;100433.41;4780890;29;20541;-75
2023/12/25 17:33:37;;;;;;;8.50;3.65;;;;;;;10.94;100.00;100443.81;4778574;29;20039;-74
2023/12/25 17:36:03;;;;;;;7.05;2.80;;;;;;;10.88;100.00;100436.97;4776454;29;20126;-74
2023/12/25 17:38:29;;;;;;;4.95;2.60;;;;;;;10.87;100.00;100448.53;4775718;30;20059;-74
2023/12/25 17:40:54;;;;;;;6.72;2.70;;;;;;;10.88;100.00;100453.75;4780772;29;20078;-74
2023/12/25 17:43:19;;;;;;;7.50;2.75;;;;;;;10.92;100.00;100445.38;4779693;30;20126;-74
2023/12/25 17:45:45;;;;;;;7.47;3.42;;;;;;;10.91;100.00;100452.16;4777210;29;20035;-74
2023/12/25 17:48:11;;;;;;;5.88;2.72;;;;;;;10.93;100.00;100449.78;4779739;29;20044;-74
2023/12/25 17:50:36;;;;;;;6.97;3.55;;;;;;;10.96;100.00;100457.38;4782938;29;20490;-76
2023/12/25 17:53:02;;;;;;;12.68;3.33;;;;;;;10.90;100.00;100453.34;4782330;29;20573;-76
2023/12/25 17:55:27;;;;;;;8.35;3.00;;;;;;;10.92;100.00;100445.38;4781697;29;20051;-76
2023/12/25 17:57:52;;;;;;;7.45;3.13;;;;;;;10.89;100.00;100446.16;4781661;30;20091;-75
2023/12/25 18:00:18;;;;;;;9.27;2.97;;;;;;;10.85;100.00;100446.13;4779263;30;20043;-75
2023/12/25 18:02:46;;;;;;;9.60;3.17;;;;;;;10.84;100.00;100438.16;4776505;29;20154;-76
2023/12/25 18:05:12;;;;;;;7.05;2.80;;;;;;;10.83;100.00;100425.31;4780195;29;20039;-76
2023/12/25 18:07:38;;;;;;;7.88;4.70;;;;;;;10.88;100.00;100430.53;4780158;29;20074;-75
2023/12/25 18:10:06;;;;;;;8.55;4.35;;;;;;;10.87;100.00;100431.75;4780899;30;20093;-75
2023/12/25 18:12:32;;;;;;;16.83;4.43;;;;;;;10.88;100.00;100427.75;4780988;29;20044;-75
2023/12/25 18:14:58;;;;;;;13.40;4.78;;;;;;;10.85;100.00;100436.94;4780988;29;20132;-75
2023/12/25 18:17:24;;;;;;;10.98;3.80;;;;;;;10.85;100.00;100432.13;4775985;30;20455;-75
2023/12/25 18:19:49;;;;;;;7.78;3.85;;;;;;;10.85;100.00;100434.13;4779996;29;20039;-75
2023/12/25 18:22:15;;;;;;;12.45;3.80;;;;;;;10.87;100.00;100435.34;4782249;29;20705;-75
2023/12/25 18:24:40;;;;;;;10.23;3.08;;;;;;;10.85;100.00;100431.34;4777742;29;20087;-75
2023/12/25 18:27:05;;;;;;;10.07;3.30;;;;;;;10.86;100.00;100430.16;4780371;29;20114;-75
2023/12/25 18:29:31;;;;;;;8.80;2.90;;;;;;;10.82;100.00;100427.31;4779773;29;20116;-75
2023/12/25 18:31:56;;;;;;;12.13;3.50;;;;;;;10.82;100.00;100426.53;4779175;30;20120;-75
2023/12/25 18:34:25;;;;;;;12.32;2.42;;;;;;;10.82;100.00;100424.53;4780638;29;20047;-75
2023/12/25 18:36:51;;;;;;;4.60;2.10;;;;;;;10.80;100.00;100434.50;4778541;30;20114;-76
2023/12/25 18:39:16;;;;;;;12.18;3.58;;;;;;;10.85;100.00;100422.94;4779201;30;20046;-75
2023/12/25 18:41:42;;;;;;;9.25;2.15;;;;;;;10.76;100.00;100421.28;4779055;30;20024;-75
2023/12/25 18:44:07;;;;;;;7.03;3.22;;;;;;;10.73;100.00;100415.66;4778558;29;20127;-75
2023/12/25 18:46:32;;;;;;;6.55;2.35;;;;;;;10.74;100.00;100411.69;4781348;29;20043;-75
2023/12/25 18:48:58;;;;;;;14.40;3.33;;;;;;;10.72;100.00;100417.66;4777941;29;20048;-75
2023/12/25 18:51:23;;;;;;;9.65;3.03;;;;;;;10.67;100.00;100415.25;4782284;30;20469;-73
2023/12/25 18:53:49;;;;;;;10.07;2.70;;;;;;;10.68;100.00;100413.22;4780294;30;20108;-75
2023/12/25 18:56:15;;;;;;;6.70;2.47;;;;;;;10.69;100.00;100407.25;4778330;29;20031;-73
2023/12/25 18:58:40;;;;;;;9.40;2.67;;;;;;;10.68;100.00;100414.03;4782153;29;20043;-72
2023/12/25 19:01:06;;;;;;;10.70;2.70;;;;;;;10.68;100.00;100404.84;4775004;29;20123;-76
2023/12/25 19:03:31;;;;;;;9.65;3.40;;;;;;;10.67;100.00;100398.44;4778491;30;20031;-76
2023/12/25 19:05:56;;;;;;;9.93;2.55;;;;;;;10.66;100.00;100396.81;4777601;29;20102;-76
2023/12/25 19:08:24;;;;;;;9.90;3.70;;;;;;;10.58;100.00;100393.19;4781198;30;20038;-76
2023/12/25 19:10:49;;;;;;;7.30;2.17;;;;;;;10.58;100.00;100389.56;4778485;29;20437;-76
2023/12/25 19:13:14;;;;;;;13.20;3.83;;;;;;;10.57;100.00;100379.59;4779893;29;20039;-76
2023/12/25 19:15:40;;;;;;;8.00;2.58;;;;;;;10.51;100.00;100379.13;4778497;29;20078;-76
2023/12/25 19:18:05;;;;;;;9.48;3.55;;;;;;;10.50;100.00;100374.75;4782726;29;20058;-76
2023/12/25 19:20:33;;;;;;;5.50;3.47;;;;;;;10.46;100.00;100373.13;4781531;29;20035;-76
2023/12/25 19:22:59;;;;;;;7.75;4.05;;;;;;;10.40;100.00;100363.50;4779275;30;20078;-76